Current Weather

Stinson Muni

San Antonio, Texas (KSSF)

Report from: Saturday, February 4, 2023 10:53 PM CST
Current time: Saturday, February 4, 2023 11:32 PM CST

Nearby weather
Weather history
Weather forecast

Temperature7.8°C (46.0°F)
Dew point6.7°C (44.1°F)
Winds Calm
Visibility10 mi. (16.1 km)
Clouds Sky clear
Altimeter30.24 in.Hg (1024 mB)
Relative humidity93 %
Density altitude-1,089 ft. (-332 m)
Sea-level pressure102.4 kPa (1024 mB, 30.24 in.Hg)
Remarks Fully automated report
System requires maintenance
Automated weather observing station with precipitation discriminator
Flight conditions Visual Meteorological Conditions
Raw dataKSSF 050453Z AUTO 00000KT 10SM CLR 08/07 A3024 RMK AO2 SLP242 T00780067 $
An unhandled exception has occurred. See browser dev tools for details. Reload 🗙